Time;durP1;ratioP1;P1;durP2;ratioP2;P2;SDS_P1;SDS_P2;PMS_P1;PMS_P2;Temp;Humidity;BMP_temperature;BMP_pressure;BME280_temperature;BME280_humidity;BME280_pressure;Samples;Min_cycle;Max_cycle;Signal;HPM_P1;HPM_P2
2021/04/20 00:00:08;;;;;;;23.23;17.75;;;;;;;;;;5111187;28;20455;-52
2021/04/20 00:02:35;;;;;;;24.02;17.40;;;;;;;;;;5115938;28;20204;-54
2021/04/20 00:05:05;;;;;;;22.75;17.63;;;;;;;;;;5098332;28;20228;-55
2021/04/20 00:10:35;;;;;;;24.58;17.35;;;;;;;;;;5115254;28;20319;-51
2021/04/20 00:13:03;;;;;;;22.98;17.42;;;;;;;;;;5115588;28;20193;-56
2021/04/20 00:15:40;;;;;;;26.83;18.92;;;;;;;;;;5116243;28;20205;-54
2021/04/20 00:18:07;;;;;;;24.52;19.33;;;;;;;;;;5115499;28;20220;-52
2021/04/20 00:20:38;;;;;;;23.90;18.17;;;;;;;;;;5115616;28;20325;-53
2021/04/20 00:23:06;;;;;;;24.02;18.52;;;;;;;;;;5107849;28;20206;-54
2021/04/20 00:25:33;;;;;;;23.48;17.45;;;;;;;;;;5097357;28;20217;-55
2021/04/20 00:28:00;;;;;;;22.73;17.48;;;;;;;;;;5095866;28;20200;-57
2021/04/20 00:30:27;;;;;;;25.67;19.65;;;;;;;;;;5114554;28;20217;-59
2021/04/20 00:32:54;;;;;;;23.25;17.23;;;;;;;;;;5114731;28;20468;-58
2021/04/20 00:35:21;;;;;;;22.00;17.60;;;;;;;;;;5116335;28;20212;-52
2021/04/20 00:37:50;;;;;;;23.55;17.77;;;;;;;;;;5115605;28;20227;-55
2021/04/20 00:40:17;;;;;;;26.17;18.55;;;;;;;;;;5115471;28;20205;-56
2021/04/20 00:42:48;;;;;;;26.75;17.48;;;;;;;;;;5098698;28;20197;-57
2021/04/20 00:45:26;;;;;;;23.98;16.95;;;;;;;;;;5115086;28;20232;-54
2021/04/20 00:47:53;;;;;;;29.33;18.02;;;;;;;;;;5099395;28;20238;-53
2021/04/20 00:50:22;;;;;;;21.75;16.45;;;;;;;;;;5098730;28;20241;-58
2021/04/20 00:52:50;;;;;;;23.38;16.98;;;;;;;;;;5099210;28;20214;-52
2021/04/20 00:55:17;;;;;;;23.52;15.98;;;;;;;;;;5108886;28;20189;-49
2021/04/20 00:58:06;;;;;;;19.27;15.18;;;;;;;;;;5094326;28;20234;-52
2021/04/20 01:00:33;;;;;;;25.40;17.02;;;;;;;;;;5079352;28;20569;-56
2021/04/20 01:03:00;;;;;;;21.67;16.65;;;;;;;;;;5078928;28;20199;-58
2021/04/20 01:05:29;;;;;;;23.17;17.42;;;;;;;;;;5103633;28;20193;-58
2021/04/20 01:07:59;;;;;;;24.92;16.85;;;;;;;;;;5119004;28;20258;-53
2021/04/20 01:10:27;;;;;;;24.60;16.27;;;;;;;;;;5119469;28;20213;-55
2021/04/20 01:12:58;;;;;;;24.02;16.27;;;;;;;;;;5119404;28;20189;-54
2021/04/20 01:15:25;;;;;;;24.48;17.92;;;;;;;;;;5098642;28;20210;-52
2021/04/20 01:17:52;;;;;;;21.40;16.30;;;;;;;;;;5099116;28;20194;-58
2021/04/20 01:20:36;;;;;;;21.83;16.95;;;;;;;;;;5098840;28;20220;-55
2021/04/20 01:23:04;;;;;;;20.80;15.90;;;;;;;;;;5097021;28;20225;-55
2021/04/20 01:25:33;;;;;;;25.15;16.90;;;;;;;;;;5099118;28;20257;-55
2021/04/20 01:28:10;;;;;;;23.90;16.58;;;;;;;;;;5098552;28;20240;-55
2021/04/20 01:30:37;;;;;;;25.38;17.45;;;;;;;;;;5097064;28;20229;-56
2021/04/20 01:33:06;;;;;;;21.20;15.80;;;;;;;;;;5098684;28;20205;-56
2021/04/20 01:35:44;;;;;;;22.30;17.33;;;;;;;;;;5098482;28;20194;-50
2021/04/20 01:38:11;;;;;;;22.15;17.55;;;;;;;;;;5098171;28;20224;-49
2021/04/20 01:40:39;;;;;;;21.00;14.75;;;;;;;;;;5098574;28;20202;-56
2021/04/20 01:43:13;;;;;;;23.30;15.07;;;;;;;;;;5098958;28;20244;-53
2021/04/20 01:45:40;;;;;;;23.33;16.60;;;;;;;;;;5098540;28;20297;-53
2021/04/20 01:48:07;;;;;;;20.38;15.82;;;;;;;;;;5098352;28;20224;-53
2021/04/20 01:50:41;;;;;;;21.65;16.58;;;;;;;;;;5098378;28;20237;-55
2021/04/20 01:53:08;;;;;;;23.55;15.88;;;;;;;;;;5098926;28;20205;-48
2021/04/20 01:55:35;;;;;;;21.88;15.75;;;;;;;;;;5098407;28;20210;-53
2021/04/20 01:58:21;;;;;;;22.70;15.88;;;;;;;;;;5094543;28;20194;-56
2021/04/20 02:00:49;;;;;;;22.05;16.35;;;;;;;;;;5091701;28;20202;-56
2021/04/20 02:03:16;;;;;;;20.88;14.85;;;;;;;;;;5079064;28;20206;-57
2021/04/20 02:05:43;;;;;;;19.30;15.07;;;;;;;;;;5078487;28;20195;-55
2021/04/20 02:08:10;;;;;;;21.33;16.60;;;;;;;;;;5083893;28;20205;-58
2021/04/20 02:10:58;;;;;;;21.70;15.90;;;;;;;;;;5078518;28;20237;-57
2021/04/20 02:13:26;;;;;;;21.85;15.35;;;;;;;;;;5092012;28;20206;-54
2021/04/20 02:15:54;;;;;;;28.45;17.60;;;;;;;;;;5098504;28;20210;-52
2021/04/20 02:18:21;;;;;;;24.30;17.13;;;;;;;;;;5082290;28;20187;-57
2021/04/20 02:20:48;;;;;;;22.88;16.48;;;;;;;;;;5083376;28;20187;-57
2021/04/20 02:23:16;;;;;;;19.88;15.27;;;;;;;;;;5088599;28;20205;-58
2021/04/20 02:26:07;;;;;;;22.52;16.35;;;;;;;;;;5087119;28;20314;-53
2021/04/20 02:28:34;;;;;;;23.70;16.60;;;;;;;;;;5090224;28;20213;-52
2021/04/20 02:31:02;;;;;;;23.95;16.13;;;;;;;;;;5076645;28;20243;-56
2021/04/20 02:33:49;;;;;;;22.17;15.50;;;;;;;;;;5077415;28;20218;-50
2021/04/20 02:36:16;;;;;;;19.85;14.77;;;;;;;;;;5082273;28;20228;-50
2021/04/20 02:38:45;;;;;;;20.20;15.00;;;;;;;;;;5077305;28;20210;-49
2021/04/20 02:41:18;;;;;;;22.17;16.05;;;;;;;;;;5076927;28;20225;-56
2021/04/20 02:43:46;;;;;;;22.58;17.00;;;;;;;;;;5077691;28;20211;-58
2021/04/20 02:46:13;;;;;;;17.90;13.55;;;;;;;;;;5093449;28;20194;-54
2021/04/20 02:48:48;;;;;;;22.17;15.60;;;;;;;;;;5097104;28;20224;-53
2021/04/20 02:51:15;;;;;;;23.90;15.75;;;;;;;;;;5086552;28;20226;-58
2021/04/20 02:53:43;;;;;;;24.00;16.48;;;;;;;;;;5072670;28;20211;-55
2021/04/20 02:56:25;;;;;;;20.08;15.32;;;;;;;;;;5074051;28;20202;-57
2021/04/20 02:59:02;;;;;;;23.52;17.33;;;;;;;;;;5067975;28;20210;-53
2021/04/20 03:01:31;;;;;;;23.95;15.60;;;;;;;;;;5077533;28;20233;-57
2021/04/20 03:03:58;;;;;;;21.58;15.45;;;;;;;;;;5081695;28;20213;-52
2021/04/20 03:06:25;;;;;;;28.92;16.33;;;;;;;;;;5096978;28;20213;-51
2021/04/20 03:08:52;;;;;;;22.42;16.08;;;;;;;;;;5096101;28;20206;-53
2021/04/20 03:11:23;;;;;;;20.48;14.50;;;;;;;;;;5096625;28;20214;-57
2021/04/20 03:13:59;;;;;;;20.13;15.10;;;;;;;;;;5087463;28;20178;-54
2021/04/20 03:16:27;;;;;;;21.70;16.30;;;;;;;;;;5091269;28;20198;-58
2021/04/20 03:18:53;;;;;;;20.58;14.27;;;;;;;;;;5077839;28;20265;-51
2021/04/20 03:21:39;;;;;;;24.98;14.05;;;;;;;;;;5077136;28;20206;-48
2021/04/20 03:24:06;;;;;;;27.13;14.43;;;;;;;;;;5101002;28;20221;-57
2021/04/20 03:26:36;;;;;;;23.38;16.00;;;;;;;;;;5107570;28;20246;-51
2021/04/20 03:29:10;;;;;;;20.20;15.00;;;;;;;;;;5084728;28;20202;-56
2021/04/20 03:31:38;;;;;;;19.60;13.95;;;;;;;;;;5091865;28;20221;-53
2021/04/20 03:34:11;;;;;;;23.75;15.98;;;;;;;;;;5089683;28;20202;-54
2021/04/20 03:37:18;;;;;;;20.67;15.95;;;;;;;;;;5097418;28;20190;-57
2021/04/20 03:39:54;;;;;;;21.77;14.82;;;;;;;;;;5097479;28;20257;-52
2021/04/20 03:42:24;;;;;;;19.95;14.18;;;;;;;;;;5098776;28;20174;-55
2021/04/20 03:45:20;;;;;;;22.77;15.93;;;;;;;;;;5080064;28;20186;-52
2021/04/20 03:47:48;;;;;;;20.33;14.50;;;;;;;;;;5078924;28;20218;-54
2021/04/20 03:50:36;;;;;;;21.75;14.20;;;;;;;;;;5097500;28;20271;-54
2021/04/20 03:53:12;;;;;;;19.63;14.52;;;;;;;;;;5086147;28;20206;-53
2021/04/20 03:55:41;;;;;;;18.58;13.50;;;;;;;;;;5069133;28;20208;-53
2021/04/20 03:58:27;;;;;;;20.17;14.05;;;;;;;;;;5095838;28;20217;-56
2021/04/20 04:00:57;;;;;;;17.48;13.13;;;;;;;;;;5094858;28;20209;-59
2021/04/20 04:03:33;;;;;;;20.77;13.93;;;;;;;;;;5092705;28;20287;-59
2021/04/20 04:06:09;;;;;;;24.02;14.00;;;;;;;;;;5076143;28;20232;-59
2021/04/20 04:08:39;;;;;;;28.48;16.10;;;;;;;;;;5084769;28;20222;-55
2021/04/20 04:11:10;;;;;;;18.95;13.38;;;;;;;;;;5086990;28;20260;-58
2021/04/20 04:13:44;;;;;;;20.40;15.60;;;;;;;;;;5096643;28;20202;-58
2021/04/20 04:16:19;;;;;;;20.27;13.55;;;;;;;;;;5091704;28;20237;-54
2021/04/20 04:18:54;;;;;;;21.10;14.25;;;;;;;;;;5096210;28;20196;-48
2021/04/20 04:21:31;;;;;;;17.33;12.95;;;;;;;;;;5096845;28;20182;-51
2021/04/20 04:24:00;;;;;;;21.80;13.55;;;;;;;;;;5096305;28;20238;-51
2021/04/20 04:26:49;;;;;;;20.88;15.23;;;;;;;;;;5095550;28;20216;-55
2021/04/20 04:29:20;;;;;;;23.88;15.60;;;;;;;;;;5094468;28;20230;-58
2021/04/20 04:32:00;;;;;;;22.05;13.80;;;;;;;;;;5097992;28;20273;-56
2021/04/20 04:34:47;;;;;;;19.10;13.35;;;;;;;;;;5097896;28;20394;-54
2021/04/20 04:37:20;;;;;;;20.60;14.73;;;;;;;;;;5091204;28;20274;-52
2021/04/20 04:39:48;;;;;;;19.75;14.43;;;;;;;;;;5113032;28;20204;-54
2021/04/20 04:45:12;;;;;;;20.15;13.50;;;;;;;;;;5090367;28;20241;-52
2021/04/20 04:47:40;;;;;;;20.38;14.98;;;;;;;;;;5095878;28;20208;-56
2021/04/20 04:50:09;;;;;;;22.70;15.13;;;;;;;;;;5095281;28;20643;-51
2021/04/20 04:52:41;;;;;;;26.92;14.63;;;;;;;;;;5096070;28;20216;-59
2021/04/20 04:55:10;;;;;;;20.98;14.65;;;;;;;;;;5095058;28;20245;-51
2021/04/20 04:57:37;;;;;;;20.42;13.85;;;;;;;;;;5083531;28;20193;-55
2021/04/20 05:00:06;;;;;;;21.20;14.52;;;;;;;;;;5074855;28;20217;-57
2021/04/20 05:05:37;;;;;;;18.52;12.63;;;;;;;;;;5092904;28;20224;-55
2021/04/20 05:08:05;;;;;;;17.15;13.43;;;;;;;;;;5094642;28;20226;-52
2021/04/20 05:10:34;;;;;;;22.50;14.60;;;;;;;;;;5094804;28;20213;-54
2021/04/20 05:13:01;;;;;;;20.00;14.13;;;;;;;;;;5094931;28;20228;-49
2021/04/20 05:15:29;;;;;;;20.90;14.35;;;;;;;;;;5094739;28;20197;-51
2021/04/20 05:17:59;;;;;;;17.55;13.30;;;;;;;;;;5094264;28;20202;-57
2021/04/20 05:20:26;;;;;;;22.20;16.65;;;;;;;;;;5094808;28;20493;-57
2021/04/20 05:22:57;;;;;;;16.85;12.73;;;;;;;;;;5094528;28;20215;-59
2021/04/20 05:25:25;;;;;;;15.98;12.90;;;;;;;;;;5091460;28;20204;-57
2021/04/20 05:27:52;;;;;;;17.02;12.80;;;;;;;;;;5083479;28;20263;-59
2021/04/20 05:30:21;;;;;;;18.92;12.45;;;;;;;;;;5094725;28;20222;-56
2021/04/20 05:32:55;;;;;;;22.23;12.23;;;;;;;;;;5093946;28;20275;-51
2021/04/20 05:35:28;;;;;;;20.70;13.38;;;;;;;;;;5095382;28;20242;-51
2021/04/20 05:37:56;;;;;;;19.98;12.57;;;;;;;;;;5098022;28;20193;-55
2021/04/20 05:40:26;;;;;;;25.02;15.23;;;;;;;;;;5098187;28;20185;-57
2021/04/20 05:42:53;;;;;;;21.83;15.07;;;;;;;;;;5097755;28;20232;-57
2021/04/20 05:45:49;;;;;;;17.88;13.55;;;;;;;;;;5097138;28;20209;-51
2021/04/20 05:48:17;;;;;;;18.35;12.15;;;;;;;;;;5097210;28;20194;-58
2021/04/20 05:50:50;;;;;;;15.13;11.43;;;;;;;;;;5094043;28;20237;-54
2021/04/20 05:53:25;;;;;;;16.25;12.73;;;;;;;;;;5081526;28;20252;-55
2021/04/20 05:56:01;;;;;;;18.27;10.55;;;;;;;;;;5095688;28;20248;-57
2021/04/20 05:58:28;;;;;;;18.33;11.10;;;;;;;;;;5097950;28;20216;-50
2021/04/20 06:00:54;;;;;;;22.42;12.38;;;;;;;;;;5112485;28;20281;-56
2021/04/20 06:03:23;;;;;;;16.50;11.45;;;;;;;;;;5097194;28;20613;-58
2021/04/20 06:06:21;;;;;;;14.93;11.02;;;;;;;;;;5097595;28;20217;-59
2021/04/20 06:08:51;;;;;;;16.75;11.70;;;;;;;;;;5098037;28;20208;-60
2021/04/20 06:11:21;;;;;;;15.17;11.60;;;;;;;;;;5083641;28;20244;-58
2021/04/20 06:16:52;;;;;;;16.30;11.90;;;;;;;;;;5076627;28;20419;-55
2021/04/20 06:19:20;;;;;;;16.70;12.93;;;;;;;;;;5076678;28;20464;-60
2021/04/20 06:24:52;;;;;;;16.40;10.37;;;;;;;;;;5088188;28;20211;-52
2021/04/20 06:27:19;;;;;;;17.87;12.17;;;;;;;;;;5105827;28;20474;-54
2021/04/20 06:29:56;;;;;;;18.97;14.07;;;;;;;;;;5104005;28;20480;-55
2021/04/20 06:32:24;;;;;;;18.37;12.27;;;;;;;;;;5083520;28;20456;-58
2021/04/20 06:34:53;;;;;;;20.30;13.33;;;;;;;;;;5071114;28;20694;-54
2021/04/20 06:37:36;;;;;;;22.57;15.10;;;;;;;;;;5082407;28;20453;-56
2021/04/20 06:40:12;;;;;;;19.80;13.23;;;;;;;;;;5076006;28;20464;-57
2021/04/20 06:42:41;;;;;;;23.10;13.07;;;;;;;;;;5075994;28;20433;-54
2021/04/20 06:45:24;;;;;;;19.50;14.07;;;;;;;;;;5075886;28;20521;-59
2021/04/20 06:48:16;;;;;;;20.73;12.83;;;;;;;;;;5078393;28;20456;-54
2021/04/20 06:50:44;;;;;;;19.43;11.57;;;;;;;;;;5091898;28;20473;-53
2021/04/20 06:53:24;;;;;;;18.63;11.90;;;;;;;;;;5092825;28;20430;-57
2021/04/20 06:56:08;;;;;;;17.53;12.00;;;;;;;;;;5095442;28;20511;-54
2021/04/20 06:58:42;;;;;;;14.03;11.33;;;;;;;;;;5091154;28;20455;-54
2021/04/20 07:01:22;;;;;;;13.70;11.00;;;;;;;;;;5095198;28;20439;-54
2021/04/20 07:03:58;;;;;;;16.50;11.37;;;;;;;;;;5095479;28;20479;-57
2021/04/20 07:06:29;;;;;;;19.00;13.60;;;;;;;;;;5095241;28;20462;-54
2021/04/20 07:09:00;;;;;;;17.13;12.63;;;;;;;;;;5115460;28;20455;-59
2021/04/20 07:11:27;;;;;;;17.50;11.87;;;;;;;;;;5115003;28;20580;-58
2021/04/20 07:14:12;;;;;;;28.67;14.27;;;;;;;;;;5115794;28;20451;-55
2021/04/20 07:16:46;;;;;;;17.90;13.60;;;;;;;;;;5115309;28;20451;-55
2021/04/20 07:19:22;;;;;;;16.97;12.77;;;;;;;;;;5097183;28;20451;-57
2021/04/20 07:22:16;;;;;;;25.77;17.27;;;;;;;;;;5094492;28;20452;-59
2021/04/20 07:24:52;;;;;;;24.10;17.80;;;;;;;;;;5081424;28;20555;-56
2021/04/20 07:27:26;;;;;;;22.77;16.40;;;;;;;;;;5079765;28;20452;-59
2021/04/20 07:30:08;;;;;;;24.53;17.87;;;;;;;;;;5094274;28;20478;-62
2021/04/20 07:32:50;;;;;;;29.93;18.33;;;;;;;;;;5079501;28;20469;-53
2021/04/20 07:35:19;;;;;;;25.20;19.67;;;;;;;;;;5073343;28;20463;-58
2021/04/20 07:37:47;;;;;;;25.00;17.67;;;;;;;;;;5073120;28;20461;-55
2021/04/20 07:40:24;;;;;;;28.57;19.10;;;;;;;;;;5073736;28;20468;-54
2021/04/20 07:43:05;;;;;;;29.77;20.00;;;;;;;;;;5073669;28;20528;-58
2021/04/20 07:46:05;;;;;;;27.87;20.93;;;;;;;;;;5070412;28;20461;-58
2021/04/20 07:48:39;;;;;;;27.23;20.20;;;;;;;;;;5075125;28;20433;-57
2021/04/20 07:51:09;;;;;;;32.90;22.03;;;;;;;;;;5074084;28;20553;-60
2021/04/20 07:53:42;;;;;;;30.00;22.83;;;;;;;;;;5074947;28;20449;-59
2021/04/20 07:56:13;;;;;;;31.27;23.00;;;;;;;;;;5075390;28;20483;-54
2021/04/20 07:58:49;;;;;;;28.97;20.73;;;;;;;;;;5074166;28;20460;-53
2021/04/20 08:01:21;;;;;;;27.00;22.33;;;;;;;;;;5071048;28;20441;-56
2021/04/20 08:03:53;;;;;;;34.03;22.70;;;;;;;;;;5060283;28;20468;-52
2021/04/20 08:06:33;;;;;;;36.43;23.30;;;;;;;;;;5066911;28;20481;-54
2021/04/20 08:09:03;;;;;;;32.37;22.90;;;;;;;;;;5053352;28;20450;-61
2021/04/20 08:11:30;;;;;;;31.10;21.97;;;;;;;;;;5053995;28;20489;-57
2021/04/20 08:14:02;;;;;;;31.20;21.53;;;;;;;;;;5071857;28;20453;-58
2021/04/20 08:16:32;;;;;;;36.60;21.03;;;;;;;;;;5074011;28;20469;-56
2021/04/20 08:19:05;;;;;;;29.37;21.17;;;;;;;;;;5073330;28;20505;-57
2021/04/20 08:21:32;;;;;;;31.47;22.03;;;;;;;;;;5073923;28;20502;-51
2021/04/20 08:24:01;;;;;;;29.70;21.03;;;;;;;;;;5079916;28;20559;-51
2021/04/20 08:26:45;;;;;;;30.40;21.20;;;;;;;;;;5093281;28;20467;-56
2021/04/20 08:29:16;;;;;;;28.47;20.90;;;;;;;;;;5093227;28;20440;-58
2021/04/20 08:31:46;;;;;;;30.97;21.80;;;;;;;;;;5092185;28;20674;-55
2021/04/20 08:34:19;;;;;;;29.90;20.37;;;;;;;;;;5093195;28;20451;-55
2021/04/20 08:36:52;;;;;;;33.80;21.17;;;;;;;;;;5092617;28;20463;-59
2021/04/20 08:39:21;;;;;;;39.97;22.40;;;;;;;;;;5093382;28;20583;-60
2021/04/20 08:41:58;;;;;;;26.47;19.40;;;;;;;;;;5093294;28;20471;-61
2021/04/20 08:44:29;;;;;;;29.00;21.40;;;;;;;;;;5093967;28;20525;-60
2021/04/20 08:47:00;;;;;;;28.63;19.57;;;;;;;;;;5093631;28;20468;-59
2021/04/20 08:49:42;;;;;;;31.10;24.10;;;;;;;;;;5093467;28;20455;-55
2021/04/20 08:52:15;;;;;;;28.00;21.30;;;;;;;;;;5093076;28;20459;-52
2021/04/20 08:55:02;;;;;;;28.30;22.00;;;;;;;;;;5091833;28;20444;-59
2021/04/20 08:57:37;;;;;;;30.63;22.37;;;;;;;;;;5093107;28;20515;-52
2021/04/20 09:00:33;;;;;;;35.57;24.43;;;;;;;;;;5093845;28;20466;-57
2021/04/20 09:03:07;;;;;;;29.33;20.97;;;;;;;;;;5094446;28;20466;-55
2021/04/20 09:05:38;;;;;;;31.70;22.50;;;;;;;;;;5094086;28;20501;-59
2021/04/20 09:08:31;;;;;;;30.97;21.93;;;;;;;;;;5096103;28;20456;-61
2021/04/20 09:11:02;;;;;;;29.83;20.90;;;;;;;;;;5094470;28;20635;-54
2021/04/20 09:13:33;;;;;;;28.07;21.37;;;;;;;;;;5096617;28;20527;-59
2021/04/20 09:16:03;;;;;;;25.63;20.07;;;;;;;;;;5095913;28;20452;-55
2021/04/20 09:18:33;;;;;;;29.80;20.77;;;;;;;;;;5094984;28;20475;-56
2021/04/20 09:21:04;;;;;;;28.77;21.17;;;;;;;;;;5076663;28;20459;-58
2021/04/20 09:23:52;;;;;;;24.87;18.20;;;;;;;;;;5076282;28;20486;-58
2021/04/20 09:26:33;;;;;;;23.73;18.67;;;;;;;;;;5075534;28;20531;-57
2021/04/20 09:29:01;;;;;;;24.60;17.13;;;;;;;;;;5086549;28;20487;-61
2021/04/20 09:31:31;;;;;;;26.23;17.53;;;;;;;;;;5096478;28;20554;-59
2021/04/20 09:33:58;;;;;;;25.23;18.20;;;;;;;;;;5096505;28;20487;-56
2021/04/20 09:36:28;;;;;;;19.30;15.03;;;;;;;;;;5097232;28;20447;-62
2021/04/20 09:38:59;;;;;;;20.17;16.00;;;;;;;;;;5096318;28;20451;-60
2021/04/20 09:41:29;;;;;;;25.07;16.77;;;;;;;;;;5095373;28;20652;-57
2021/04/20 09:44:10;;;;;;;28.70;16.40;;;;;;;;;;5096641;28;20495;-54
2021/04/20 09:46:48;;;;;;;30.13;19.60;;;;;;;;;;5095851;28;20519;-51
2021/04/20 09:49:34;;;;;;;31.33;18.40;;;;;;;;;;5085474;28;20445;-52
2021/04/20 09:52:03;;;;;;;27.70;18.20;;;;;;;;;;5083398;28;20474;-51
2021/04/20 09:54:32;;;;;;;19.23;15.70;;;;;;;;;;5095753;28;20456;-55
2021/04/20 09:57:02;;;;;;;18.40;12.07;;;;;;;;;;5096703;28;20440;-57
2021/04/20 09:59:34;;;;;;;16.47;12.43;;;;;;;;;;5096075;28;20463;-56
2021/04/20 10:02:24;;;;;;;16.27;11.50;;;;;;;;;;5084761;28;20467;-57
2021/04/20 10:05:05;;;;;;;15.87;12.33;;;;;;;;;;5094924;28;20479;-58
2021/04/20 10:07:51;;;;;;;18.67;13.43;;;;;;;;;;5096251;28;20456;-52
2021/04/20 10:10:23;;;;;;;15.00;11.53;;;;;;;;;;5037702;28;20568;-58
2021/04/20 10:12:59;;;;;;;15.90;12.67;;;;;;;;;;5075572;28;20453;-54
2021/04/20 10:15:29;;;;;;;16.90;11.93;;;;;;;;;;5075415;28;20433;-57
2021/04/20 10:18:10;;;;;;;23.43;13.70;;;;;;;;;;5074800;28;20456;-54
2021/04/20 10:20:39;;;;;;;15.80;12.87;;;;;;;;;;5092320;28;20452;-58
2021/04/20 10:23:11;;;;;;;17.20;12.87;;;;;;;;;;5094161;28;20658;-57
2021/04/20 10:25:40;;;;;;;17.20;12.10;;;;;;;;;;5090908;28;20459;-61
2021/04/20 10:28:14;;;;;;;16.07;11.63;;;;;;;;;;5096420;28;20452;-55
2021/04/20 10:31:02;;;;;;;14.97;12.23;;;;;;;;;;5095588;28;20499;-57
2021/04/20 10:33:29;;;;;;;17.33;11.00;;;;;;;;;;5092086;28;20682;-55
2021/04/20 10:36:06;;;;;;;16.30;11.80;;;;;;;;;;5114723;28;20632;-56
2021/04/20 10:38:34;;;;;;;16.23;12.47;;;;;;;;;;5095845;28;20657;-56
2021/04/20 10:41:04;;;;;;;15.73;10.87;;;;;;;;;;5096217;28;20504;-52
2021/04/20 10:43:32;;;;;;;13.37;10.77;;;;;;;;;;5095510;28;20436;-59
2021/04/20 10:46:08;;;;;;;15.73;11.50;;;;;;;;;;5095614;28;20460;-50
2021/04/20 10:48:36;;;;;;;14.20;10.10;;;;;;;;;;5096364;28;20467;-57
2021/04/20 10:51:05;;;;;;;14.20;10.50;;;;;;;;;;5094190;28;20467;-60
2021/04/20 10:56:39;;;;;;;12.63;10.40;;;;;;;;;;5095427;28;20414;-54
2021/04/20 10:59:09;;;;;;;14.33;10.30;;;;;;;;;;5095185;28;20443;-58
2021/04/20 11:02:07;;;;;;;11.83;9.33;;;;;;;;;;5095099;28;20463;-55
2021/04/20 11:04:37;;;;;;;12.90;9.77;;;;;;;;;;5109888;28;20435;-58
2021/04/20 11:07:36;;;;;;;12.40;10.30;;;;;;;;;;5101040;28;20463;-62
2021/04/20 11:10:05;;;;;;;14.17;9.97;;;;;;;;;;5083805;28;20496;-54
2021/04/20 11:13:04;;;;;;;17.20;9.07;;;;;;;;;;5074802;28;20496;-52
2021/04/20 11:18:38;;;;;;;12.50;8.53;;;;;;;;;;5091906;28;20487;-62
2021/04/20 11:21:09;;;;;;;12.63;9.73;;;;;;;;;;5095069;28;20485;-54
2021/04/20 11:26:42;;;;;;;13.87;9.90;;;;;;;;;;5065116;28;20583;-55
2021/04/20 11:29:35;;;;;;;13.50;9.33;;;;;;;;;;5054350;28;20649;-58
2021/04/20 11:32:08;;;;;;;10.77;8.80;;;;;;;;;;5044886;28;20511;-55
2021/04/20 11:34:37;;;;;;;11.73;9.07;;;;;;;;;;5076862;28;20495;-59
2021/04/20 11:37:12;;;;;;;14.07;10.30;;;;;;;;;;5093816;28;20459;-55
2021/04/20 11:39:45;;;;;;;11.47;9.33;;;;;;;;;;5095377;28;20460;-53
2021/04/20 11:42:31;;;;;;;12.30;9.13;;;;;;;;;;5093793;28;20794;-47
2021/04/20 11:44:59;;;;;;;13.50;8.70;;;;;;;;;;5094353;28;20431;-60
2021/04/20 11:47:27;;;;;;;11.37;8.23;;;;;;;;;;5091344;28;20456;-54
2021/04/20 11:50:13;;;;;;;9.80;7.80;;;;;;;;;;5089967;28;20461;-57
2021/04/20 11:52:42;;;;;;;12.33;7.77;;;;;;;;;;5086733;28;20530;-56
2021/04/20 11:55:14;;;;;;;10.60;7.50;;;;;;;;;;5095606;28;20537;-57
2021/04/20 11:58:12;;;;;;;12.67;8.43;;;;;;;;;;5094915;28;20452;-58
2021/04/20 12:00:43;;;;;;;10.83;8.13;;;;;;;;;;5093516;28;20487;-51
2021/04/20 12:03:11;;;;;;;13.10;8.77;;;;;;;;;;5096486;28;20448;-58
2021/04/20 12:05:55;;;;;;;11.77;8.13;;;;;;;;;;5095973;28;20492;-48
2021/04/20 12:08:25;;;;;;;8.40;7.40;;;;;;;;;;5095744;28;20449;-56
2021/04/20 12:10:53;;;;;;;15.63;8.63;;;;;;;;;;5087277;28;20475;-61
2021/04/20 12:13:32;;;;;;;9.33;7.40;;;;;;;;;;5095789;28;20467;-56
2021/04/20 12:16:00;;;;;;;9.57;7.10;;;;;;;;;;5096043;28;20452;-55
2021/04/20 12:18:29;;;;;;;9.87;7.93;;;;;;;;;;5107249;28;20479;-54
2021/04/20 12:21:04;;;;;;;10.20;7.63;;;;;;;;;;5096186;28;20464;-57
2021/04/20 12:23:33;;;;;;;9.17;7.60;;;;;;;;;;5093185;28;20519;-58
2021/04/20 12:26:18;;;;;;;13.23;8.77;;;;;;;;;;5087012;28;20448;-58
2021/04/20 12:28:47;;;;;;;12.33;8.97;;;;;;;;;;5094914;28;20513;-61
2021/04/20 12:31:15;;;;;;;11.93;8.03;;;;;;;;;;5104504;28;20496;-56
2021/04/20 12:34:19;;;;;;;11.77;9.00;;;;;;;;;;5100202;28;20455;-57
2021/04/20 12:36:48;;;;;;;12.43;10.00;;;;;;;;;;5094373;28;20481;-56
2021/04/20 12:39:26;;;;;;;10.30;7.97;;;;;;;;;;5094819;28;20452;-58
2021/04/20 12:42:21;;;;;;;10.13;7.67;;;;;;;;;;5094735;28;20467;-54
2021/04/20 12:44:54;;;;;;;11.43;7.20;;;;;;;;;;5093498;28;20491;-56
2021/04/20 12:47:28;;;;;;;14.53;9.33;;;;;;;;;;5113331;28;20458;-57
2021/04/20 12:50:06;;;;;;;10.00;8.80;;;;;;;;;;5115454;28;20443;-54
2021/04/20 12:52:34;;;;;;;9.17;7.30;;;;;;;;;;5115150;28;20463;-56
2021/04/20 12:55:03;;;;;;;11.13;8.97;;;;;;;;;;5112498;28;20424;-57
2021/04/20 13:00:34;;;;;;;13.00;8.63;;;;;;;;;;5081838;28;20546;-59
2021/04/20 13:03:03;;;;;;;13.40;10.40;;;;;;;;;;5094669;28;20428;-59
2021/04/20 13:05:47;;;;;;;11.60;8.70;;;;;;;;;;5104268;28;20435;-57
2021/04/20 13:08:14;;;;;;;12.57;10.80;;;;;;;;;;5096802;28;20456;-52
2021/04/20 13:10:44;;;;;;;13.00;9.73;;;;;;;;;;5095209;28;20500;-59
2021/04/20 13:13:12;;;;;;;11.87;9.20;;;;;;;;;;5094688;28;20491;-58
2021/04/20 13:15:40;;;;;;;15.17;9.47;;;;;;;;;;5094562;28;20621;-53
2021/04/20 13:18:13;;;;;;;14.00;11.43;;;;;;;;;;5075058;28;20513;-55
2021/04/20 13:20:44;;;;;;;13.97;10.40;;;;;;;;;;5075277;28;20421;-61
2021/04/20 13:23:25;;;;;;;13.03;10.47;;;;;;;;;;5091425;28;20448;-58
2021/04/20 13:26:02;;;;;;;13.10;8.17;;;;;;;;;;5094451;28;20463;-57
2021/04/20 13:28:30;;;;;;;12.60;10.33;;;;;;;;;;5095033;28;20447;-54
2021/04/20 13:30:58;;;;;;;15.70;9.20;;;;;;;;;;5094567;28;20502;-59
2021/04/20 13:33:53;;;;;;;13.00;9.33;;;;;;;;;;5090889;28;20642;-56
2021/04/20 13:36:21;;;;;;;12.27;9.03;;;;;;;;;;5073786;28;20449;-59
2021/04/20 13:38:56;;;;;;;10.77;8.33;;;;;;;;;;5087277;28;20440;-60
2021/04/20 13:41:47;;;;;;;18.50;13.60;;;;;;;;;;5093670;28;20472;-61
2021/04/20 13:44:15;;;;;;;11.13;8.80;;;;;;;;;;5094060;28;20580;-60
2021/04/20 13:46:46;;;;;;;11.97;8.30;;;;;;;;;;5093899;28;20475;-51
2021/04/20 13:49:13;;;;;;;16.97;9.90;;;;;;;;;;5092925;28;20739;-59
2021/04/20 13:51:43;;;;;;;13.40;8.70;;;;;;;;;;5094544;28;20559;-53
2021/04/20 13:54:18;;;;;;;8.80;7.57;;;;;;;;;;5083484;28;20457;-60
2021/04/20 13:56:51;;;;;;;11.00;8.10;;;;;;;;;;5088149;28;20460;-48
2021/04/20 13:59:19;;;;;;;10.07;7.53;;;;;;;;;;5096581;28;20457;-56
2021/04/20 14:01:48;;;;;;;14.20;8.53;;;;;;;;;;5076937;28;20484;-58
2021/04/20 14:04:22;;;;;;;9.90;8.10;;;;;;;;;;5077979;28;20465;-53
2021/04/20 14:09:55;;;;;;;8.77;7.10;;;;;;;;;;5076383;28;20463;-57
2021/04/20 14:12:25;;;;;;;9.43;8.37;;;;;;;;;;5096140;28;20674;-54
2021/04/20 14:14:58;;;;;;;15.13;9.90;;;;;;;;;;5116960;28;20446;-57
2021/04/20 14:17:31;;;;;;;13.97;9.13;;;;;;;;;;5102458;28;20464;-56
2021/04/20 14:20:00;;;;;;;11.17;7.80;;;;;;;;;;5095817;28;20451;-59
2021/04/20 14:22:47;;;;;;;13.10;9.20;;;;;;;;;;5095968;28;20460;-55
2021/04/20 14:25:14;;;;;;;12.33;9.10;;;;;;;;;;5114127;28;20491;-54
2021/04/20 14:27:42;;;;;;;13.30;9.07;;;;;;;;;;5100872;28;20467;-57
2021/04/20 14:30:34;;;;;;;16.37;11.13;;;;;;;;;;5095816;28;20517;-54
2021/04/20 14:33:14;;;;;;;13.03;9.17;;;;;;;;;;5098294;28;20472;-60
2021/04/20 14:35:48;;;;;;;15.67;9.63;;;;;;;;;;5108517;28;20455;-55
2021/04/20 14:38:42;;;;;;;12.87;8.50;;;;;;;;;;5110110;28;20451;-58
2021/04/20 14:41:21;;;;;;;10.57;8.60;;;;;;;;;;5073673;28;20461;-56
2021/04/20 14:44:27;;;;;;;12.13;9.20;;;;;;;;;;4996400;28;20449;-58
2021/04/20 14:46:55;;;;;;;10.73;7.63;;;;;;;;;;5094315;28;20508;-55
2021/04/20 14:49:29;;;;;;;11.80;9.20;;;;;;;;;;5097380;28;20508;-55
2021/04/20 14:52:15;;;;;;;11.37;8.63;;;;;;;;;;5097695;28;20491;-55
2021/04/20 14:54:47;;;;;;;13.17;9.07;;;;;;;;;;5110239;28;20479;-52
2021/04/20 14:57:18;;;;;;;10.93;8.60;;;;;;;;;;5106673;28;20446;-56
2021/04/20 15:00:06;;;;;;;13.00;8.57;;;;;;;;;;5081600;28;20453;-60
2021/04/20 15:02:34;;;;;;;12.23;8.13;;;;;;;;;;5085205;28;20444;-59
2021/04/20 15:05:01;;;;;;;11.30;8.80;;;;;;;;;;5081716;28;20449;-51
2021/04/20 15:07:50;;;;;;;11.70;7.20;;;;;;;;;;5083752;28;20468;-54
2021/04/20 15:10:19;;;;;;;11.13;8.57;;;;;;;;;;5092489;28;20444;-60
2021/04/20 15:12:53;;;;;;;10.23;7.70;;;;;;;;;;5097035;28;20489;-58
2021/04/20 15:15:27;;;;;;;15.23;11.30;;;;;;;;;;5096968;28;20424;-56
2021/04/20 15:18:02;;;;;;;12.90;8.90;;;;;;;;;;5079626;28;20444;-58
2021/04/20 15:20:35;;;;;;;11.47;7.80;;;;;;;;;;5094081;28;20444;-54
2021/04/20 15:23:23;;;;;;;11.90;8.40;;;;;;;;;;5082828;28;20462;-60
2021/04/20 15:29:05;;;;;;;12.90;8.93;;;;;;;;;;5110655;28;20473;-49
2021/04/20 15:31:33;;;;;;;12.30;8.60;;;;;;;;;;5093896;28;20556;-55